sensor_id;sensor_type;location;lat;lon;timestamp;P1;durP1;ratioP1;P2;durP2;ratioP2
72284;SDS011;60220;53.552;10.092;2023-10-13T00:02:13;10.15;;;2.30;;
72284;SDS011;60220;53.552;10.092;2023-10-13T00:04:40;10.18;;;1.98;;
72284;SDS011;60220;53.552;10.092;2023-10-13T00:07:10;5.25;;;1.70;;
72284;SDS011;60220;53.552;10.092;2023-10-13T00:09:37;7.97;;;2.33;;
72284;SDS011;60220;53.552;10.092;2023-10-13T00:12:04;6.30;;;1.42;;
72284;SDS011;60220;53.552;10.092;2023-10-13T00:14:35;7.93;;;2.75;;
72284;SDS011;60220;53.552;10.092;2023-10-13T00:17:04;11.18;;;2.00;;
72284;SDS011;60220;53.552;10.092;2023-10-13T00:19:33;3.50;;;1.42;;
72284;SDS011;60220;53.552;10.092;2023-10-13T00:22:11;10.50;;;1.98;;
72284;SDS011;60220;53.552;10.092;2023-10-13T00:24:42;8.80;;;2.67;;
72284;SDS011;60220;53.552;10.092;2023-10-13T00:27:11;8.57;;;1.80;;
72284;SDS011;60220;53.552;10.092;2023-10-13T00:29:55;8.32;;;2.28;;
72284;SDS011;60220;53.552;10.092;2023-10-13T00:32:40;7.47;;;2.13;;
72284;SDS011;60220;53.552;10.092;2023-10-13T00:35:09;4.88;;;1.95;;
72284;SDS011;60220;53.552;10.092;2023-10-13T00:37:43;5.85;;;1.80;;
72284;SDS011;60220;53.552;10.092;2023-10-13T00:40:10;13.02;;;3.50;;
72284;SDS011;60220;53.552;10.092;2023-10-13T00:43:02;4.45;;;2.03;;
72284;SDS011;60220;53.552;10.092;2023-10-13T00:45:51;9.63;;;2.20;;
72284;SDS011;60220;53.552;10.092;2023-10-13T00:48:25;5.35;;;1.92;;
72284;SDS011;60220;53.552;10.092;2023-10-13T00:50:58;7.20;;;2.10;;
72284;SDS011;60220;53.552;10.092;2023-10-13T00:53:30;6.65;;;2.58;;
72284;SDS011;60220;53.552;10.092;2023-10-13T00:55:58;11.27;;;2.58;;
72284;SDS011;60220;53.552;10.092;2023-10-13T00:58:31;9.07;;;2.33;;
72284;SDS011;60220;53.552;10.092;2023-10-13T01:01:02;8.18;;;2.95;;
72284;SDS011;60220;53.552;10.092;2023-10-13T01:03:44;8.45;;;2.60;;
72284;SDS011;60220;53.552;10.092;2023-10-13T01:06:13;7.55;;;2.70;;
72284;SDS011;60220;53.552;10.092;2023-10-13T01:08:42;5.90;;;2.60;;
72284;SDS011;60220;53.552;10.092;2023-10-13T01:11:10;7.65;;;2.60;;
72284;SDS011;60220;53.552;10.092;2023-10-13T01:13:36;10.20;;;3.03;;
72284;SDS011;60220;53.552;10.092;2023-10-13T01:16:04;8.45;;;2.78;;
72284;SDS011;60220;53.552;10.092;2023-10-13T01:18:32;7.18;;;3.30;;
72284;SDS011;60220;53.552;10.092;2023-10-13T01:21:07;7.28;;;3.30;;
72284;SDS011;60220;53.552;10.092;2023-10-13T01:23:35;8.70;;;3.40;;
72284;SDS011;60220;53.552;10.092;2023-10-13T01:26:03;10.60;;;3.35;;
72284;SDS011;60220;53.552;10.092;2023-10-13T01:28:33;9.60;;;3.40;;
72284;SDS011;60220;53.552;10.092;2023-10-13T01:31:12;9.70;;;3.63;;
72284;SDS011;60220;53.552;10.092;2023-10-13T01:33:50;10.32;;;4.57;;
72284;SDS011;60220;53.552;10.092;2023-10-13T01:36:20;7.95;;;3.13;;
72284;SDS011;60220;53.552;10.092;2023-10-13T01:38:47;9.27;;;3.97;;
72284;SDS011;60220;53.552;10.092;2023-10-13T01:41:15;19.52;;;4.20;;
72284;SDS011;60220;53.552;10.092;2023-10-13T01:43:41;9.65;;;3.78;;
72284;SDS011;60220;53.552;10.092;2023-10-13T01:46:07;8.15;;;3.35;;
72284;SDS011;60220;53.552;10.092;2023-10-13T01:48:34;12.13;;;3.97;;
72284;SDS011;60220;53.552;10.092;2023-10-13T01:51:04;11.07;;;4.00;;
72284;SDS011;60220;53.552;10.092;2023-10-13T01:53:33;13.20;;;4.95;;
72284;SDS011;60220;53.552;10.092;2023-10-13T01:56:03;15.88;;;4.80;;
72284;SDS011;60220;53.552;10.092;2023-10-13T01:58:35;14.43;;;4.78;;
72284;SDS011;60220;53.552;10.092;2023-10-13T02:01:08;12.60;;;4.65;;
72284;SDS011;60220;53.552;10.092;2023-10-13T02:03:37;9.98;;;4.57;;
72284;SDS011;60220;53.552;10.092;2023-10-13T02:06:13;21.08;;;5.05;;
72284;SDS011;60220;53.552;10.092;2023-10-13T02:08:43;13.55;;;4.45;;
72284;SDS011;60220;53.552;10.092;2023-10-13T02:11:14;9.98;;;4.45;;
72284;SDS011;60220;53.552;10.092;2023-10-13T02:13:40;16.42;;;5.07;;
72284;SDS011;60220;53.552;10.092;2023-10-13T02:16:13;13.57;;;5.47;;
72284;SDS011;60220;53.552;10.092;2023-10-13T02:18:43;15.50;;;4.95;;
72284;SDS011;60220;53.552;10.092;2023-10-13T02:21:16;17.05;;;5.43;;
72284;SDS011;60220;53.552;10.092;2023-10-13T02:23:44;10.63;;;4.90;;
72284;SDS011;60220;53.552;10.092;2023-10-13T02:26:23;12.68;;;5.15;;
72284;SDS011;60220;53.552;10.092;2023-10-13T02:28:55;19.70;;;6.18;;
72284;SDS011;60220;53.552;10.092;2023-10-13T02:31:26;21.75;;;7.22;;
72284;SDS011;60220;53.552;10.092;2023-10-13T02:33:52;18.48;;;6.32;;
72284;SDS011;60220;53.552;10.092;2023-10-13T02:36:20;16.27;;;5.88;;
72284;SDS011;60220;53.552;10.092;2023-10-13T02:38:49;11.93;;;5.18;;
72284;SDS011;60220;53.552;10.092;2023-10-13T02:41:17;17.67;;;5.82;;
72284;SDS011;60220;53.552;10.092;2023-10-13T02:43:52;25.20;;;6.80;;
72284;SDS011;60220;53.552;10.092;2023-10-13T02:46:20;16.63;;;7.15;;
72284;SDS011;60220;53.552;10.092;2023-10-13T02:48:47;17.75;;;7.32;;
72284;SDS011;60220;53.552;10.092;2023-10-13T02:51:18;23.25;;;6.53;;
72284;SDS011;60220;53.552;10.092;2023-10-13T02:53:50;21.90;;;6.78;;
72284;SDS011;60220;53.552;10.092;2023-10-13T02:56:18;22.98;;;8.05;;
72284;SDS011;60220;53.552;10.092;2023-10-13T02:58:48;20.33;;;7.28;;
72284;SDS011;60220;53.552;10.092;2023-10-13T03:01:22;20.40;;;8.02;;
72284;SDS011;60220;53.552;10.092;2023-10-13T03:03:53;22.50;;;7.60;;
72284;SDS011;60220;53.552;10.092;2023-10-13T03:06:22;18.52;;;8.45;;
72284;SDS011;60220;53.552;10.092;2023-10-13T03:08:51;22.25;;;7.53;;
72284;SDS011;60220;53.552;10.092;2023-10-13T03:11:20;22.02;;;8.30;;
72284;SDS011;60220;53.552;10.092;2023-10-13T03:13:49;29.08;;;8.65;;
72284;SDS011;60220;53.552;10.092;2023-10-13T03:16:17;18.23;;;7.45;;
72284;SDS011;60220;53.552;10.092;2023-10-13T03:18:47;24.67;;;7.93;;
72284;SDS011;60220;53.552;10.092;2023-10-13T03:21:23;28.98;;;9.23;;
72284;SDS011;60220;53.552;10.092;2023-10-13T03:23:56;19.73;;;8.98;;
72284;SDS011;60220;53.552;10.092;2023-10-13T03:26:29;24.20;;;8.63;;
72284;SDS011;60220;53.552;10.092;2023-10-13T03:29:00;25.55;;;8.38;;
72284;SDS011;60220;53.552;10.092;2023-10-13T03:31:28;25.58;;;7.97;;
72284;SDS011;60220;53.552;10.092;2023-10-13T03:33:56;14.45;;;6.45;;
72284;SDS011;60220;53.552;10.092;2023-10-13T03:36:26;18.65;;;7.25;;
72284;SDS011;60220;53.552;10.092;2023-10-13T03:39:11;12.45;;;6.47;;
72284;SDS011;60220;53.552;10.092;2023-10-13T03:41:39;14.55;;;7.00;;
72284;SDS011;60220;53.552;10.092;2023-10-13T03:44:08;15.45;;;7.05;;
72284;SDS011;60220;53.552;10.092;2023-10-13T03:46:39;15.98;;;6.68;;
72284;SDS011;60220;53.552;10.092;2023-10-13T03:49:09;16.00;;;7.00;;
72284;SDS011;60220;53.552;10.092;2023-10-13T03:51:38;12.85;;;5.80;;
72284;SDS011;60220;53.552;10.092;2023-10-13T03:54:05;11.77;;;6.22;;
72284;SDS011;60220;53.552;10.092;2023-10-13T03:56:33;12.43;;;5.88;;
72284;SDS011;60220;53.552;10.092;2023-10-13T03:59:05;11.98;;;5.95;;
72284;SDS011;60220;53.552;10.092;2023-10-13T04:01:35;12.48;;;6.95;;
72284;SDS011;60220;53.552;10.092;2023-10-13T04:04:12;18.23;;;7.30;;
72284;SDS011;60220;53.552;10.092;2023-10-13T04:06:42;17.58;;;7.55;;
72284;SDS011;60220;53.552;10.092;2023-10-13T04:09:24;13.55;;;6.75;;
72284;SDS011;60220;53.552;10.092;2023-10-13T04:12:08;19.85;;;7.75;;
72284;SDS011;60220;53.552;10.092;2023-10-13T04:14:51;19.08;;;8.18;;
72284;SDS011;60220;53.552;10.092;2023-10-13T04:20:11;14.65;;;6.70;;
72284;SDS011;60220;53.552;10.092;2023-10-13T04:22:57;20.17;;;8.07;;
72284;SDS011;60220;53.552;10.092;2023-10-13T04:25:41;19.67;;;7.68;;
72284;SDS011;60220;53.552;10.092;2023-10-13T04:28:33;23.60;;;8.52;;
72284;SDS011;60220;53.552;10.092;2023-10-13T04:31:04;20.45;;;9.10;;
72284;SDS011;60220;53.552;10.092;2023-10-13T04:33:50;17.77;;;8.38;;
72284;SDS011;60220;53.552;10.092;2023-10-13T04:36:27;24.15;;;9.15;;
72284;SDS011;60220;53.552;10.092;2023-10-13T04:39:10;17.00;;;8.10;;
72284;SDS011;60220;53.552;10.092;2023-10-13T04:41:40;25.67;;;10.00;;
72284;SDS011;60220;53.552;10.092;2023-10-13T04:44:08;20.25;;;9.00;;
72284;SDS011;60220;53.552;10.092;2023-10-13T04:47:09;25.73;;;9.70;;
72284;SDS011;60220;53.552;10.092;2023-10-13T04:49:42;25.77;;;10.07;;
72284;SDS011;60220;53.552;10.092;2023-10-13T04:52:19;28.90;;;10.25;;
72284;SDS011;60220;53.552;10.092;2023-10-13T04:55:04;21.23;;;10.20;;
72284;SDS011;60220;53.552;10.092;2023-10-13T05:00:35;32.75;;;12.25;;
72284;SDS011;60220;53.552;10.092;2023-10-13T05:03:20;26.50;;;10.25;;
72284;SDS011;60220;53.552;10.092;2023-10-13T05:06:05;27.55;;;10.48;;
72284;SDS011;60220;53.552;10.092;2023-10-13T05:09:04;32.47;;;11.55;;
72284;SDS011;60220;53.552;10.092;2023-10-13T05:11:48;26.50;;;11.10;;
72284;SDS011;60220;53.552;10.092;2023-10-13T05:14:35;27.30;;;11.23;;
72284;SDS011;60220;53.552;10.092;2023-10-13T05:20:03;27.80;;;12.53;;
72284;SDS011;60220;53.552;10.092;2023-10-13T05:22:47;32.55;;;12.75;;
72284;SDS011;60220;53.552;10.092;2023-10-13T05:25:35;30.85;;;13.13;;
72284;SDS011;60220;53.552;10.092;2023-10-13T05:28:22;32.30;;;13.02;;
72284;SDS011;60220;53.552;10.092;2023-10-13T05:31:07;32.03;;;13.55;;
72284;SDS011;60220;53.552;10.092;2023-10-13T05:33:51;32.50;;;14.88;;
72284;SDS011;60220;53.552;10.092;2023-10-13T05:36:36;36.85;;;15.50;;
72284;SDS011;60220;53.552;10.092;2023-10-13T05:39:20;39.08;;;15.77;;
72284;SDS011;60220;53.552;10.092;2023-10-13T05:42:06;37.60;;;17.20;;
72284;SDS011;60220;53.552;10.092;2023-10-13T05:44:52;39.88;;;16.02;;
72284;SDS011;60220;53.552;10.092;2023-10-13T05:47:42;39.30;;;18.88;;
72284;SDS011;60220;53.552;10.092;2023-10-13T05:50:26;44.38;;;17.48;;
72284;SDS011;60220;53.552;10.092;2023-10-13T05:53:15;42.63;;;18.00;;
72284;SDS011;60220;53.552;10.092;2023-10-13T05:56:03;37.33;;;18.52;;
72284;SDS011;60220;53.552;10.092;2023-10-13T05:58:49;45.42;;;17.55;;
72284;SDS011;60220;53.552;10.092;2023-10-13T06:01:33;40.75;;;17.20;;
72284;SDS011;60220;53.552;10.092;2023-10-13T06:07:01;43.97;;;17.83;;
72284;SDS011;60220;53.552;10.092;2023-10-13T06:09:45;44.92;;;18.17;;
72284;SDS011;60220;53.552;10.092;2023-10-13T06:12:29;41.78;;;18.67;;
72284;SDS011;60220;53.552;10.092;2023-10-13T06:15:15;47.17;;;20.00;;
72284;SDS011;60220;53.552;10.092;2023-10-13T06:17:59;45.90;;;18.67;;
72284;SDS011;60220;53.552;10.092;2023-10-13T06:20:44;46.55;;;20.35;;
72284;SDS011;60220;53.552;10.092;2023-10-13T06:23:28;47.35;;;20.33;;
72284;SDS011;60220;53.552;10.092;2023-10-13T06:26:12;47.85;;;19.77;;
72284;SDS011;60220;53.552;10.092;2023-10-13T06:28:57;48.58;;;19.10;;
72284;SDS011;60220;53.552;10.092;2023-10-13T06:31:26;45.35;;;18.90;;
72284;SDS011;60220;53.552;10.092;2023-10-13T06:33:55;46.38;;;19.73;;
72284;SDS011;60220;53.552;10.092;2023-10-13T06:36:24;49.38;;;19.75;;
72284;SDS011;60220;53.552;10.092;2023-10-13T06:38:50;44.40;;;19.55;;
72284;SDS011;60220;53.552;10.092;2023-10-13T06:41:43;43.40;;;18.60;;
72284;SDS011;60220;53.552;10.092;2023-10-13T06:44:10;44.83;;;20.10;;
72284;SDS011;60220;53.552;10.092;2023-10-13T06:46:42;50.30;;;20.13;;
72284;SDS011;60220;53.552;10.092;2023-10-13T06:49:09;51.17;;;20.80;;
72284;SDS011;60220;53.552;10.092;2023-10-13T06:51:38;56.60;;;21.63;;
72284;SDS011;60220;53.552;10.092;2023-10-13T06:54:07;58.92;;;22.70;;
72284;SDS011;60220;53.552;10.092;2023-10-13T06:56:47;53.42;;;21.70;;
72284;SDS011;60220;53.552;10.092;2023-10-13T06:59:17;49.35;;;23.60;;
72284;SDS011;60220;53.552;10.092;2023-10-13T07:01:45;56.55;;;22.90;;
72284;SDS011;60220;53.552;10.092;2023-10-13T07:04:13;54.00;;;22.30;;
72284;SDS011;60220;53.552;10.092;2023-10-13T07:06:40;48.03;;;22.88;;
72284;SDS011;60220;53.552;10.092;2023-10-13T07:09:13;50.90;;;21.88;;
72284;SDS011;60220;53.552;10.092;2023-10-13T07:12:01;53.30;;;21.02;;
72284;SDS011;60220;53.552;10.092;2023-10-13T07:14:31;52.97;;;22.38;;
72284;SDS011;60220;53.552;10.092;2023-10-13T07:17:05;54.55;;;23.00;;
72284;SDS011;60220;53.552;10.092;2023-10-13T07:19:33;53.05;;;22.63;;
72284;SDS011;60220;53.552;10.092;2023-10-13T07:22:00;57.70;;;24.20;;
72284;SDS011;60220;53.552;10.092;2023-10-13T07:27:14;48.75;;;21.80;;
72284;SDS011;60220;53.552;10.092;2023-10-13T07:29:48;51.00;;;22.70;;
72284;SDS011;60220;53.552;10.092;2023-10-13T07:32:22;53.60;;;22.65;;
72284;SDS011;60220;53.552;10.092;2023-10-13T07:34:54;53.38;;;21.73;;
72284;SDS011;60220;53.552;10.092;2023-10-13T07:37:22;58.38;;;22.30;;
72284;SDS011;60220;53.552;10.092;2023-10-13T07:39:54;47.90;;;20.80;;
72284;SDS011;60220;53.552;10.092;2023-10-13T07:42:25;49.03;;;21.00;;
72284;SDS011;60220;53.552;10.092;2023-10-13T07:44:57;50.05;;;21.67;;
72284;SDS011;60220;53.552;10.092;2023-10-13T07:47:26;42.30;;;20.98;;
72284;SDS011;60220;53.552;10.092;2023-10-13T07:49:53;51.08;;;21.23;;
72284;SDS011;60220;53.552;10.092;2023-10-13T07:52:22;44.50;;;20.27;;
72284;SDS011;60220;53.552;10.092;2023-10-13T07:54:52;39.47;;;19.80;;
72284;SDS011;60220;53.552;10.092;2023-10-13T07:57:25;38.10;;;17.77;;
72284;SDS011;60220;53.552;10.092;2023-10-13T07:59:54;43.88;;;18.15;;
72284;SDS011;60220;53.552;10.092;2023-10-13T08:02:35;37.40;;;17.02;;
72284;SDS011;60220;53.552;10.092;2023-10-13T08:05:15;34.33;;;17.10;;
72284;SDS011;60220;53.552;10.092;2023-10-13T08:07:50;36.67;;;17.05;;
72284;SDS011;60220;53.552;10.092;2023-10-13T08:10:18;33.45;;;15.70;;
72284;SDS011;60220;53.552;10.092;2023-10-13T08:12:50;28.58;;;14.90;;
72284;SDS011;60220;53.552;10.092;2023-10-13T08:15:17;26.73;;;14.07;;
72284;SDS011;60220;53.552;10.092;2023-10-13T08:17:58;31.55;;;15.65;;
72284;SDS011;60220;53.552;10.092;2023-10-13T08:20:30;25.55;;;13.35;;
72284;SDS011;60220;53.552;10.092;2023-10-13T08:23:03;28.65;;;14.18;;
72284;SDS011;60220;53.552;10.092;2023-10-13T08:25:38;24.10;;;12.57;;
72284;SDS011;60220;53.552;10.092;2023-10-13T08:28:19;25.63;;;13.85;;
72284;SDS011;60220;53.552;10.092;2023-10-13T08:31:05;26.88;;;13.50;;
72284;SDS011;60220;53.552;10.092;2023-10-13T08:33:48;26.80;;;13.15;;
72284;SDS011;60220;53.552;10.092;2023-10-13T08:36:15;24.42;;;12.68;;
72284;SDS011;60220;53.552;10.092;2023-10-13T08:38:55;26.77;;;14.10;;
72284;SDS011;60220;53.552;10.092;2023-10-13T08:41:22;22.08;;;11.57;;
72284;SDS011;60220;53.552;10.092;2023-10-13T08:43:55;24.95;;;12.98;;
72284;SDS011;60220;53.552;10.092;2023-10-13T08:46:31;20.67;;;11.38;;
72284;SDS011;60220;53.552;10.092;2023-10-13T08:49:20;22.90;;;11.57;;
72284;SDS011;60220;53.552;10.092;2023-10-13T08:51:51;23.25;;;11.75;;
72284;SDS011;60220;53.552;10.092;2023-10-13T08:54:32;20.40;;;10.75;;
72284;SDS011;60220;53.552;10.092;2023-10-13T08:57:04;20.95;;;11.35;;
72284;SDS011;60220;53.552;10.092;2023-10-13T09:02:46;16.88;;;10.30;;
72284;SDS011;60220;53.552;10.092;2023-10-13T09:05:46;18.63;;;10.77;;
72284;SDS011;60220;53.552;10.092;2023-10-13T09:08:27;15.65;;;9.32;;
72284;SDS011;60220;53.552;10.092;2023-10-13T09:11:01;15.75;;;9.57;;
72284;SDS011;60220;53.552;10.092;2023-10-13T09:13:36;18.52;;;9.05;;
72284;SDS011;60220;53.552;10.092;2023-10-13T09:16:11;20.33;;;8.70;;
72284;SDS011;60220;53.552;10.092;2023-10-13T09:18:47;13.50;;;8.27;;
72284;SDS011;60220;53.552;10.092;2023-10-13T09:21:15;17.65;;;9.60;;
72284;SDS011;60220;53.552;10.092;2023-10-13T09:23:59;17.02;;;8.55;;
72284;SDS011;60220;53.552;10.092;2023-10-13T09:29:15;15.32;;;7.93;;
72284;SDS011;60220;53.552;10.092;2023-10-13T09:31:46;18.25;;;9.15;;
72284;SDS011;60220;53.552;10.092;2023-10-13T09:34:19;14.55;;;7.40;;
72284;SDS011;60220;53.552;10.092;2023-10-13T09:36:47;14.00;;;8.25;;
72284;SDS011;60220;53.552;10.092;2023-10-13T09:39:21;11.98;;;7.13;;
72284;SDS011;60220;53.552;10.092;2023-10-13T09:41:55;13.25;;;6.95;;
72284;SDS011;60220;53.552;10.092;2023-10-13T09:44:23;9.82;;;6.45;;
72284;SDS011;60220;53.552;10.092;2023-10-13T09:46:48;11.15;;;5.93;;
72284;SDS011;60220;53.552;10.092;2023-10-13T09:49:19;15.45;;;7.10;;
72284;SDS011;60220;53.552;10.092;2023-10-13T09:52:11;14.43;;;6.53;;
72284;SDS011;60220;53.552;10.092;2023-10-13T09:54:51;11.52;;;5.90;;
72284;SDS011;60220;53.552;10.092;2023-10-13T09:57:26;13.05;;;6.32;;
72284;SDS011;60220;53.552;10.092;2023-10-13T10:00:08;12.60;;;5.28;;
72284;SDS011;60220;53.552;10.092;2023-10-13T10:02:56;11.05;;;5.70;;
72284;SDS011;60220;53.552;10.092;2023-10-13T10:05:34;11.60;;;6.13;;
72284;SDS011;60220;53.552;10.092;2023-10-13T10:08:02;13.45;;;6.30;;
72284;SDS011;60220;53.552;10.092;2023-10-13T10:10:32;14.80;;;6.68;;
72284;SDS011;60220;53.552;10.092;2023-10-13T10:13:13;17.83;;;7.15;;
72284;SDS011;60220;53.552;10.092;2023-10-13T10:15:51;15.65;;;6.22;;
72284;SDS011;60220;53.552;10.092;2023-10-13T10:18:22;15.77;;;6.32;;
72284;SDS011;60220;53.552;10.092;2023-10-13T10:20:51;11.27;;;6.50;;
72284;SDS011;60220;53.552;10.092;2023-10-13T10:23:25;10.85;;;6.57;;
72284;SDS011;60220;53.552;10.092;2023-10-13T10:25:57;16.40;;;6.07;;
72284;SDS011;60220;53.552;10.092;2023-10-13T10:28:39;11.57;;;6.85;;
72284;SDS011;60220;53.552;10.092;2023-10-13T10:31:08;14.32;;;6.53;;
72284;SDS011;60220;53.552;10.092;2023-10-13T10:33:37;14.55;;;6.10;;
72284;SDS011;60220;53.552;10.092;2023-10-13T10:36:05;15.57;;;6.20;;
72284;SDS011;60220;53.552;10.092;2023-10-13T10:38:50;15.88;;;6.25;;
72284;SDS011;60220;53.552;10.092;2023-10-13T10:41:25;9.93;;;5.80;;
72284;SDS011;60220;53.552;10.092;2023-10-13T10:43:55;11.30;;;6.88;;
72284;SDS011;60220;53.552;10.092;2023-10-13T10:46:26;10.02;;;5.70;;
72284;SDS011;60220;53.552;10.092;2023-10-13T10:48:55;10.57;;;5.95;;
72284;SDS011;60220;53.552;10.092;2023-10-13T10:51:26;12.13;;;7.18;;
72284;SDS011;60220;53.552;10.092;2023-10-13T10:54:00;15.63;;;6.22;;
72284;SDS011;60220;53.552;10.092;2023-10-13T10:56:39;9.52;;;6.40;;
72284;SDS011;60220;53.552;10.092;2023-10-13T10:59:08;16.17;;;6.68;;
72284;SDS011;60220;53.552;10.092;2023-10-13T11:01:43;13.27;;;6.32;;
72284;SDS011;60220;53.552;10.092;2023-10-13T11:04:13;12.98;;;6.13;;
72284;SDS011;60220;53.552;10.092;2023-10-13T11:06:47;13.40;;;6.45;;
72284;SDS011;60220;53.552;10.092;2023-10-13T11:09:25;11.38;;;6.57;;
72284;SDS011;60220;53.552;10.092;2023-10-13T11:12:08;11.23;;;5.95;;
72284;SDS011;60220;53.552;10.092;2023-10-13T11:14:40;13.35;;;6.63;;
72284;SDS011;60220;53.552;10.092;2023-10-13T11:17:08;14.35;;;7.57;;
72284;SDS011;60220;53.552;10.092;2023-10-13T11:19:46;12.00;;;7.38;;
72284;SDS011;60220;53.552;10.092;2023-10-13T11:22:13;12.90;;;7.28;;
72284;SDS011;60220;53.552;10.092;2023-10-13T11:24:59;14.40;;;6.57;;
72284;SDS011;60220;53.552;10.092;2023-10-13T11:27:34;10.05;;;6.63;;
72284;SDS011;60220;53.552;10.092;2023-10-13T11:30:20;10.18;;;6.60;;
72284;SDS011;60220;53.552;10.092;2023-10-13T11:32:57;9.52;;;6.93;;
72284;SDS011;60220;53.552;10.092;2023-10-13T11:35:25;11.73;;;6.80;;
72284;SDS011;60220;53.552;10.092;2023-10-13T11:37:54;16.55;;;6.32;;
72284;SDS011;60220;53.552;10.092;2023-10-13T11:40:29;15.45;;;6.03;;
72284;SDS011;60220;53.552;10.092;2023-10-13T11:43:31;13.57;;;6.47;;
72284;SDS011;60220;53.552;10.092;2023-10-13T11:46:10;8.40;;;5.75;;
72284;SDS011;60220;53.552;10.092;2023-10-13T11:48:41;11.10;;;5.50;;
72284;SDS011;60220;53.552;10.092;2023-10-13T11:51:11;11.85;;;5.15;;
72284;SDS011;60220;53.552;10.092;2023-10-13T11:53:42;11.25;;;4.78;;
72284;SDS011;60220;53.552;10.092;2023-10-13T11:56:12;9.93;;;5.53;;
72284;SDS011;60220;53.552;10.092;2023-10-13T11:58:39;10.90;;;4.88;;
72284;SDS011;60220;53.552;10.092;2023-10-13T12:01:06;12.35;;;5.03;;
72284;SDS011;60220;53.552;10.092;2023-10-13T12:03:48;10.60;;;4.50;;
72284;SDS011;60220;53.552;10.092;2023-10-13T12:06:33;9.88;;;4.30;;
72284;SDS011;60220;53.552;10.092;2023-10-13T12:09:12;10.43;;;4.00;;
72284;SDS011;60220;53.552;10.092;2023-10-13T12:12:01;14.50;;;4.13;;
72284;SDS011;60220;53.552;10.092;2023-10-13T12:14:29;6.20;;;3.85;;
72284;SDS011;60220;53.552;10.092;2023-10-13T12:17:02;13.10;;;3.88;;
72284;SDS011;60220;53.552;10.092;2023-10-13T12:19:30;9.77;;;3.55;;
72284;SDS011;60220;53.552;10.092;2023-10-13T12:21:57;7.82;;;3.28;;
72284;SDS011;60220;53.552;10.092;2023-10-13T12:24:29;7.73;;;3.40;;
72284;SDS011;60220;53.552;10.092;2023-10-13T12:27:06;8.65;;;3.33;;
72284;SDS011;60220;53.552;10.092;2023-10-13T12:29:45;15.23;;;3.20;;
72284;SDS011;60220;53.552;10.092;2023-10-13T12:32:12;11.60;;;3.47;;
72284;SDS011;60220;53.552;10.092;2023-10-13T12:34:39;7.80;;;2.63;;
72284;SDS011;60220;53.552;10.092;2023-10-13T12:37:22;8.10;;;3.20;;
72284;SDS011;60220;53.552;10.092;2023-10-13T12:40:15;6.93;;;3.10;;
72284;SDS011;60220;53.552;10.092;2023-10-13T12:43:01;8.30;;;3.00;;
72284;SDS011;60220;53.552;10.092;2023-10-13T12:45:46;4.30;;;2.80;;
72284;SDS011;60220;53.552;10.092;2023-10-13T12:48:32;10.43;;;3.05;;
72284;SDS011;60220;53.552;10.092;2023-10-13T12:51:17;9.55;;;3.38;;
72284;SDS011;60220;53.552;10.092;2023-10-13T12:53:49;7.13;;;2.97;;
72284;SDS011;60220;53.552;10.092;2023-10-13T12:56:17;12.98;;;3.20;;
72284;SDS011;60220;53.552;10.092;2023-10-13T12:58:54;5.03;;;2.97;;
72284;SDS011;60220;53.552;10.092;2023-10-13T13:01:22;8.95;;;3.25;;
72284;SDS011;60220;53.552;10.092;2023-10-13T13:03:51;6.97;;;2.72;;
72284;SDS011;60220;53.552;10.092;2023-10-13T13:06:23;7.75;;;3.50;;
72284;SDS011;60220;53.552;10.092;2023-10-13T13:08:51;11.82;;;3.15;;
72284;SDS011;60220;53.552;10.092;2023-10-13T13:11:18;10.63;;;3.97;;
72284;SDS011;60220;53.552;10.092;2023-10-13T13:13:45;8.68;;;3.03;;
72284;SDS011;60220;53.552;10.092;2023-10-13T13:16:14;5.38;;;2.83;;
72284;SDS011;60220;53.552;10.092;2023-10-13T13:18:43;10.88;;;3.22;;
72284;SDS011;60220;53.552;10.092;2023-10-13T13:21:10;10.07;;;3.28;;
72284;SDS011;60220;53.552;10.092;2023-10-13T13:23:45;7.82;;;3.17;;
72284;SDS011;60220;53.552;10.092;2023-10-13T13:26:11;11.40;;;3.53;;
72284;SDS011;60220;53.552;10.092;2023-10-13T13:28:42;9.05;;;3.80;;
72284;SDS011;60220;53.552;10.092;2023-10-13T13:31:13;12.60;;;3.72;;
72284;SDS011;60220;53.552;10.092;2023-10-13T13:33:40;10.00;;;3.22;;
72284;SDS011;60220;53.552;10.092;2023-10-13T13:36:08;13.30;;;3.55;;
72284;SDS011;60220;53.552;10.092;2023-10-13T13:38:40;7.93;;;2.60;;
72284;SDS011;60220;53.552;10.092;2023-10-13T13:41:11;8.40;;;3.42;;
72284;SDS011;60220;53.552;10.092;2023-10-13T13:43:41;8.75;;;3.38;;
72284;SDS011;60220;53.552;10.092;2023-10-13T13:46:22;8.88;;;2.83;;
72284;SDS011;60220;53.552;10.092;2023-10-13T13:48:52;12.32;;;3.95;;
72284;SDS011;60220;53.552;10.092;2023-10-13T13:51:24;12.02;;;3.38;;
72284;SDS011;60220;53.552;10.092;2023-10-13T13:53:53;9.48;;;3.15;;
72284;SDS011;60220;53.552;10.092;2023-10-13T13:56:20;7.53;;;3.00;;
72284;SDS011;60220;53.552;10.092;2023-10-13T13:58:50;7.68;;;3.25;;
72284;SDS011;60220;53.552;10.092;2023-10-13T14:01:18;10.82;;;3.83;;
72284;SDS011;60220;53.552;10.092;2023-10-13T14:03:48;8.32;;;3.33;;
72284;SDS011;60220;53.552;10.092;2023-10-13T14:06:16;10.20;;;3.20;;
72284;SDS011;60220;53.552;10.092;2023-10-13T14:08:46;11.23;;;3.30;;
72284;SDS011;60220;53.552;10.092;2023-10-13T14:11:16;11.07;;;3.35;;
72284;SDS011;60220;53.552;10.092;2023-10-13T14:14:08;7.45;;;3.10;;
72284;SDS011;60220;53.552;10.092;2023-10-13T14:16:37;10.20;;;3.42;;
72284;SDS011;60220;53.552;10.092;2023-10-13T14:19:11;8.80;;;3.17;;
72284;SDS011;60220;53.552;10.092;2023-10-13T14:21:39;8.48;;;3.33;;
72284;SDS011;60220;53.552;10.092;2023-10-13T14:24:08;8.90;;;2.88;;
72284;SDS011;60220;53.552;10.092;2023-10-13T14:26:40;12.32;;;4.05;;
72284;SDS011;60220;53.552;10.092;2023-10-13T14:29:08;11.15;;;3.70;;
72284;SDS011;60220;53.552;10.092;2023-10-13T14:31:39;8.57;;;3.50;;
72284;SDS011;60220;53.552;10.092;2023-10-13T14:34:07;8.38;;;3.30;;
72284;SDS011;60220;53.552;10.092;2023-10-13T14:36:36;9.23;;;3.95;;
72284;SDS011;60220;53.552;10.092;2023-10-13T14:39:04;7.97;;;3.92;;
72284;SDS011;60220;53.552;10.092;2023-10-13T14:41:34;11.88;;;3.22;;
72284;SDS011;60220;53.552;10.092;2023-10-13T14:44:01;7.70;;;3.47;;
72284;SDS011;60220;53.552;10.092;2023-10-13T14:46:32;8.85;;;3.20;;
72284;SDS011;60220;53.552;10.092;2023-10-13T14:49:00;12.00;;;3.83;;
72284;SDS011;60220;53.552;10.092;2023-10-13T14:51:28;7.97;;;3.25;;
72284;SDS011;60220;53.552;10.092;2023-10-13T14:53:58;8.68;;;3.22;;
72284;SDS011;60220;53.552;10.092;2023-10-13T14:56:26;16.10;;;3.60;;
72284;SDS011;60220;53.552;10.092;2023-10-13T14:58:53;11.05;;;3.75;;
72284;SDS011;60220;53.552;10.092;2023-10-13T15:01:21;8.32;;;3.50;;
72284;SDS011;60220;53.552;10.092;2023-10-13T15:03:50;6.35;;;3.63;;
72284;SDS011;60220;53.552;10.092;2023-10-13T15:06:20;8.80;;;3.10;;
72284;SDS011;60220;53.552;10.092;2023-10-13T15:08:52;10.23;;;4.05;;
72284;SDS011;60220;53.552;10.092;2023-10-13T15:11:21;15.02;;;4.18;;
72284;SDS011;60220;53.552;10.092;2023-10-13T15:13:52;8.93;;;3.38;;
72284;SDS011;60220;53.552;10.092;2023-10-13T15:16:22;10.70;;;3.72;;
72284;SDS011;60220;53.552;10.092;2023-10-13T15:18:50;7.43;;;3.75;;
72284;SDS011;60220;53.552;10.092;2023-10-13T15:21:18;6.57;;;3.85;;